Time;durP1;ratioP1;P1;durP2;ratioP2;P2;SDS_P1;SDS_P2;PMS_P1;PMS_P2;Temp;Humidity;BMP_temperature;BMP_pressure;BME280_temperature;BME280_humidity;BME280_pressure;Samples;Min_cycle;Max_cycle;Signal;HPM_P1;HPM_P2
2023/08/21 00:01:28;;;;;;;7.22;3.10;;;19.80;54.00;;;;;;5028082;28;20392;-72
2023/08/21 00:03:54;;;;;;;8.30;3.50;;;19.80;54.60;;;;;;5025248;28;20420;-73
2023/08/21 00:06:20;;;;;;;10.35;3.63;;;19.70;55.10;;;;;;5023284;28;20389;-74
2023/08/21 00:08:46;;;;;;;9.80;3.58;;;19.60;56.40;;;;;;5014997;28;20996;-74
2023/08/21 00:11:11;;;;;;;9.45;3.60;;;19.50;56.10;;;;;;5013563;28;20442;-74
2023/08/21 00:13:37;;;;;;;10.37;3.47;;;19.40;57.60;;;;;;4996222;28;20398;-74
2023/08/21 00:16:03;;;;;;;8.10;3.87;;;19.40;57.70;;;;;;5013863;28;20388;-74
2023/08/21 00:18:28;;;;;;;8.68;3.67;;;19.50;57.00;;;;;;5013512;28;20418;-72
2023/08/21 00:20:54;;;;;;;8.77;4.10;;;19.60;55.90;;;;;;5012970;28;20400;-71
2023/08/21 00:23:19;;;;;;;6.60;3.67;;;19.70;55.10;;;;;;5012516;28;20408;-74
2023/08/21 00:25:47;;;;;;;14.27;3.63;;;19.60;55.00;;;;;;5013197;28;20407;-73
2023/08/21 00:28:13;;;;;;;10.60;4.20;;;19.70;54.30;;;;;;5013127;28;20420;-73
2023/08/21 00:30:38;;;;;;;7.28;3.67;;;19.70;54.60;;;;;;5013002;28;20428;-73
2023/08/21 00:33:04;;;;;;;8.30;3.53;;;19.60;55.50;;;;;;5012951;28;20389;-72
2023/08/21 00:35:30;;;;;;;7.78;3.80;;;19.50;56.20;;;;;;5013138;28;20385;-74
2023/08/21 00:37:55;;;;;;;9.70;3.90;;;19.50;57.10;;;;;;5013175;28;20404;-73
2023/08/21 00:40:21;;;;;;;10.53;3.87;;;19.40;58.50;;;;;;5012732;28;20401;-72
2023/08/21 00:42:47;;;;;;;7.40;3.40;;;19.30;58.80;;;;;;5012521;28;20396;-74
2023/08/21 00:45:13;;;;;;;9.45;3.97;;;19.20;61.90;;;;;;5012843;28;20842;-73
2023/08/21 00:47:38;;;;;;;7.65;3.70;;;19.10;62.10;;;;;;5012843;28;20389;-73
2023/08/21 00:50:06;;;;;;;8.95;4.05;;;18.90;66.10;;;;;;5012478;28;20385;-72
2023/08/21 00:52:33;;;;;;;8.35;4.00;;;19.20;61.50;;;;;;5012264;28;20377;-74
2023/08/21 00:55:00;;;;;;;13.27;4.28;;;19.30;59.80;;;;;;5012635;28;20885;-73
2023/08/21 00:57:26;;;;;;;7.70;4.30;;;19.30;59.80;;;;;;5012294;28;20440;-73
2023/08/21 00:59:52;;;;;;;8.18;3.80;;;19.10;61.80;;;;;;5012332;28;20554;-74
2023/08/21 01:02:19;;;;;;;7.20;4.05;;;19.00;63.70;;;;;;4995007;28;20476;-73
2023/08/21 01:04:44;;;;;;;9.90;4.40;;;19.00;64.00;;;;;;5012726;28;20405;-74
2023/08/21 01:07:10;;;;;;;12.47;4.80;;;18.90;64.80;;;;;;5012828;28;20451;-74
2023/08/21 01:10:20;;;;;;;8.60;3.80;;;19.00;64.30;;;;;;5012588;28;20741;-72
2023/08/21 01:12:59;;;;;;;9.50;4.30;;;19.10;62.90;;;;;;4951593;29;20406;-74
2023/08/21 01:15:25;;;;;;;7.95;4.20;;;19.20;61.40;;;;;;4952650;29;20398;-74
2023/08/21 01:17:51;;;;;;;6.57;4.38;;;19.20;60.70;;;;;;4985052;28;20400;-72
2023/08/21 01:20:17;;;;;;;7.20;4.10;;;19.10;61.30;;;;;;5012403;28;20404;-74
2023/08/21 01:22:46;;;;;;;7.18;4.18;;;19.00;64.20;;;;;;5011504;28;20483;-73
2023/08/21 01:25:12;;;;;;;8.77;4.50;;;18.70;66.70;;;;;;5011397;28;20404;-73
2023/08/21 01:27:44;;;;;;;9.65;4.03;;;18.60;68.50;;;;;;4993813;28;20781;-73
2023/08/21 01:30:10;;;;;;;10.95;4.45;;;18.60;70.20;;;;;;5011503;28;20373;-73
2023/08/21 01:32:51;;;;;;;10.32;4.40;;;18.70;69.80;;;;;;5011088;28;20764;-74
2023/08/21 01:35:17;;;;;;;6.50;3.80;;;18.60;70.70;;;;;;5010993;28;20381;-72
2023/08/21 01:37:42;;;;;;;8.18;4.75;;;18.70;70.00;;;;;;5011083;28;20389;-72
2023/08/21 01:40:09;;;;;;;9.63;4.35;;;18.70;69.10;;;;;;5011152;28;20811;-73
2023/08/21 01:42:34;;;;;;;10.13;4.22;;;18.50;70.30;;;;;;5010716;28;20404;-73
2023/08/21 01:45:00;;;;;;;6.28;4.10;;;18.40;72.70;;;;;;5010790;28;20404;-73
2023/08/21 01:47:25;;;;;;;8.03;4.50;;;18.30;75.00;;;;;;5010903;28;20401;-72
2023/08/21 01:49:54;;;;;;;7.93;3.90;;;18.30;75.10;;;;;;5010899;28;20454;-73
2023/08/21 01:52:19;;;;;;;10.20;4.33;;;18.50;71.50;;;;;;5010869;28;20423;-73
2023/08/21 01:54:47;;;;;;;10.90;4.40;;;18.50;71.40;;;;;;5010873;28;20404;-72
2023/08/21 01:57:13;;;;;;;12.00;4.47;;;18.30;73.70;;;;;;5011025;28;20432;-72
2023/08/21 01:59:39;;;;;;;8.10;4.37;;;18.20;75.00;;;;;;5010577;28;20881;-73
2023/08/21 02:02:04;;;;;;;9.05;4.70;;;18.20;76.30;;;;;;4992821;28;20401;-74
2023/08/21 02:04:30;;;;;;;10.48;4.75;;;18.30;76.20;;;;;;5010631;28;20412;-72
2023/08/21 02:06:56;;;;;;;7.50;4.17;;;18.30;76.00;;;;;;5010796;28;20427;-73
2023/08/21 02:09:21;;;;;;;7.77;4.40;;;18.20;73.70;;;;;;5010549;28;20450;-73
2023/08/21 02:11:47;;;;;;;10.85;4.47;;;18.20;75.00;;;;;;5010277;28;20438;-73
2023/08/21 02:14:12;;;;;;;8.27;4.20;;;18.20;72.80;;;;;;5010545;28;20389;-74
2023/08/21 02:16:38;;;;;;;10.07;4.57;;;18.30;73.00;;;;;;5010428;28;20393;-72
2023/08/21 02:19:03;;;;;;;9.45;4.10;;;18.40;71.00;;;;;;5010484;28;20416;-73
2023/08/21 02:21:29;;;;;;;10.02;4.40;;;18.40;69.70;;;;;;4948234;28;1783156;-72
2023/08/21 02:23:54;;;;;;;9.33;4.70;;;18.40;69.70;;;;;;5010873;28;20415;-72
2023/08/21 02:26:20;;;;;;;12.55;4.45;;;18.40;68.20;;;;;;5011261;28;20461;-73
2023/08/21 02:28:46;;;;;;;11.30;4.50;;;18.30;69.50;;;;;;5011094;28;20392;-73
2023/08/21 02:31:12;;;;;;;8.35;4.30;;;18.20;70.60;;;;;;5011715;28;20443;-73
2023/08/21 02:33:38;;;;;;;9.65;4.45;;;18.30;70.40;;;;;;5014882;28;20408;-72
2023/08/21 02:36:03;;;;;;;13.10;4.67;;;18.20;70.80;;;;;;5015376;28;21019;-72
2023/08/21 02:38:29;;;;;;;11.00;4.00;;;18.20;71.30;;;;;;5015316;28;20388;-73
2023/08/21 02:40:55;;;;;;;8.97;3.90;;;18.10;71.00;;;;;;4997587;28;20517;-73
2023/08/21 02:43:21;;;;;;;8.45;4.18;;;18.30;70.60;;;;;;5011021;28;20415;-73
2023/08/21 02:45:46;;;;;;;9.93;4.30;;;18.50;68.30;;;;;;5012406;28;20474;-73
2023/08/21 02:48:12;;;;;;;12.60;5.00;;;18.70;66.10;;;;;;5014954;28;20420;-74
2023/08/21 02:50:38;;;;;;;13.70;5.10;;;18.70;66.10;;;;;;5015252;28;20385;-73
2023/08/21 02:53:03;;;;;;;14.73;5.10;;;18.90;64.90;;;;;;5015047;28;20385;-72
2023/08/21 02:55:29;;;;;;;10.40;4.60;;;18.90;62.40;;;;;;5015166;28;20894;-72
2023/08/21 02:57:54;;;;;;;8.35;4.70;;;19.00;61.70;;;;;;5015292;28;20806;-73
2023/08/21 03:00:20;;;;;;;13.00;4.70;;;18.90;62.50;;;;;;5017388;28;20395;-72
2023/08/21 03:02:46;;;;;;;7.22;4.20;;;18.90;62.40;;;;;;5019169;28;20404;-73
2023/08/21 03:05:11;;;;;;;7.57;4.30;;;18.90;62.50;;;;;;5023649;28;20443;-73
2023/08/21 03:07:37;;;;;;;11.30;4.70;;;18.90;63.90;;;;;;5026339;28;20475;-74
2023/08/21 03:10:03;;;;;;;11.80;4.77;;;18.70;65.50;;;;;;5026396;28;20393;-74
2023/08/21 03:12:29;;;;;;;7.00;4.50;;;18.80;65.90;;;;;;5012559;28;20404;-75
2023/08/21 03:14:54;;;;;;;16.25;5.65;;;19.00;63.70;;;;;;5026114;28;20405;-76
2023/08/21 03:17:20;;;;;;;12.98;5.30;;;19.00;62.30;;;;;;5034253;28;20416;-74
2023/08/21 03:19:45;;;;;;;12.80;6.00;;;19.00;62.10;;;;;;5042554;23;20380;-76
2023/08/21 03:22:11;;;;;;;11.63;5.00;;;19.00;62.20;;;;;;5035061;28;20818;-78
2023/08/21 03:24:37;;;;;;;8.15;4.43;;;19.10;62.30;;;;;;5032076;28;20433;-76
2023/08/21 03:27:03;;;;;;;12.07;4.80;;;19.00;62.50;;;;;;5033652;28;20720;-76
2023/08/21 03:29:28;;;;;;;12.63;4.90;;;18.90;63.60;;;;;;5033611;28;20770;-76
2023/08/21 03:31:54;;;;;;;11.43;5.10;;;18.80;64.30;;;;;;5033119;28;20398;-76
2023/08/21 03:34:20;;;;;;;10.90;4.90;;;18.70;66.20;;;;;;5032488;28;20426;-77
2023/08/21 03:36:46;;;;;;;12.60;5.40;;;18.60;66.30;;;;;;5033818;28;20426;-77
2023/08/21 03:39:11;;;;;;;7.23;4.30;;;18.60;68.00;;;;;;5033555;28;20387;-77
2023/08/21 03:41:37;;;;;;;8.63;4.40;;;18.50;68.00;;;;;;5032984;28;20395;-76
2023/08/21 03:44:02;;;;;;;12.33;5.07;;;18.50;69.20;;;;;;5034025;28;20402;-77
2023/08/21 03:46:28;;;;;;;17.37;4.50;;;18.60;68.30;;;;;;5034465;28;20407;-76
2023/08/21 03:48:54;;;;;;;7.43;3.95;;;18.70;68.00;;;;;;5035853;28;20410;-76
2023/08/21 03:51:19;;;;;;;9.40;4.60;;;18.60;67.80;;;;;;5035091;28;20931;-78
2023/08/21 03:53:45;;;;;;;7.80;4.10;;;18.50;70.30;;;;;;5035325;28;20444;-77
2023/08/21 03:56:10;;;;;;;9.98;4.93;;;18.50;71.00;;;;;;5034877;28;20391;-76
2023/08/21 03:58:36;;;;;;;11.43;4.70;;;18.40;71.50;;;;;;5034859;28;20383;-77
2023/08/21 04:01:01;;;;;;;9.40;4.57;;;18.20;74.80;;;;;;5034713;28;20601;-77
2023/08/21 04:03:27;;;;;;;10.15;4.70;;;18.20;76.40;;;;;;5034876;28;20446;-76
2023/08/21 04:05:54;;;;;;;11.20;4.25;;;18.40;73.50;;;;;;5034746;28;20422;-77
2023/08/21 04:08:20;;;;;;;9.35;4.43;;;18.40;72.50;;;;;;5034401;28;20383;-76
2023/08/21 04:10:45;;;;;;;9.15;4.15;;;18.40;72.30;;;;;;5032842;28;20390;-76
2023/08/21 04:13:11;;;;;;;10.95;4.10;;;18.60;69.10;;;;;;5032824;28;20862;-76
2023/08/21 04:15:37;;;;;;;9.33;4.50;;;18.70;66.40;;;;;;5032760;28;20411;-76
2023/08/21 04:18:03;;;;;;;8.13;4.10;;;18.80;65.50;;;;;;5034800;28;20379;-75
2023/08/21 04:20:29;;;;;;;7.80;4.00;;;18.80;64.30;;;;;;5032764;28;20486;-76
2023/08/21 04:22:54;;;;;;;11.27;4.10;;;18.80;63.40;;;;;;5033499;28;20856;-76
2023/08/21 04:25:20;;;;;;;7.93;4.00;;;18.80;62.70;;;;;;5033414;28;20414;-77
2023/08/21 04:27:46;;;;;;;7.57;4.80;;;18.80;62.70;;;;;;5033251;28;20391;-77
2023/08/21 04:30:11;;;;;;;12.77;4.60;;;18.70;62.80;;;;;;5033435;28;20477;-77
2023/08/21 04:32:38;;;;;;;10.52;4.72;;;18.50;66.80;;;;;;5033110;28;20376;-76
2023/08/21 04:35:05;;;;;;;6.57;4.22;;;18.50;65.00;;;;;;5034776;28;20387;-78
2023/08/21 04:37:30;;;;;;;12.27;4.60;;;18.50;67.00;;;;;;5035518;28;20402;-77
2023/08/21 04:39:56;;;;;;;7.68;4.00;;;18.70;63.80;;;;;;5034849;28;20391;-77
2023/08/21 04:42:22;;;;;;;8.05;3.80;;;18.80;62.40;;;;;;5036806;28;20419;-77
2023/08/21 04:44:48;;;;;;;8.98;4.22;;;18.70;64.50;;;;;;5034574;28;20745;-76
2023/08/21 04:47:25;;;;;;;8.23;4.07;;;18.80;63.90;;;;;;5032367;28;20394;-76
2023/08/21 04:49:52;;;;;;;8.70;4.40;;;18.90;62.90;;;;;;5033888;28;20436;-78
2023/08/21 04:52:18;;;;;;;6.68;4.35;;;18.80;62.90;;;;;;5048098;28;20395;-75
2023/08/21 04:54:44;;;;;;;10.87;4.13;;;18.80;64.20;;;;;;5032173;28;20834;-77
2023/08/21 04:57:09;;;;;;;9.37;3.70;;;18.80;65.10;;;;;;5033814;28;20469;-76
2023/08/21 04:59:36;;;;;;;9.88;4.07;;;18.80;65.90;;;;;;5032628;28;20748;-76
2023/08/21 05:02:02;;;;;;;13.97;4.60;;;19.00;62.60;;;;;;5031855;28;20387;-76
2023/08/21 05:04:27;;;;;;;16.52;4.60;;;19.00;63.20;;;;;;5035182;28;20407;-76
2023/08/21 05:06:53;;;;;;;11.30;5.47;;;18.90;64.60;;;;;;5032994;28;20479;-76
2023/08/21 05:09:18;;;;;;;7.65;4.50;;;18.80;66.30;;;;;;5034530;28;20894;-77
2023/08/21 05:11:45;;;;;;;12.82;4.50;;;19.10;63.60;;;;;;5037760;28;20827;-77
2023/08/21 05:14:10;;;;;;;9.43;3.83;;;19.30;59.20;;;;;;5038851;28;20399;-76
2023/08/21 05:16:36;;;;;;;15.60;4.70;;;19.50;56.60;;;;;;5040850;28;20390;-77
2023/08/21 05:19:01;;;;;;;18.70;5.70;;;19.60;56.50;;;;;;5039762;28;20945;-77
2023/08/21 05:21:27;;;;;;;10.93;4.32;;;19.60;56.10;;;;;;5040013;28;20438;-77
2023/08/21 05:23:53;;;;;;;10.45;4.50;;;19.40;57.60;;;;;;5040188;28;20449;-75
2023/08/21 05:26:19;;;;;;;13.37;4.73;;;19.40;58.70;;;;;;5031819;28;20740;-76
2023/08/21 05:28:45;;;;;;;14.35;4.80;;;19.50;58.00;;;;;;5032193;28;20387;-76
2023/08/21 05:31:10;;;;;;;15.15;4.60;;;19.70;55.10;;;;;;5036093;28;20383;-77
2023/08/21 05:33:36;;;;;;;11.57;4.30;;;19.80;53.90;;;;;;5032168;28;20398;-76
2023/08/21 05:36:02;;;;;;;13.27;4.80;;;19.70;55.10;;;;;;5031589;28;20582;-76
2023/08/21 05:38:27;;;;;;;14.87;5.00;;;19.60;57.00;;;;;;5031881;28;20398;-77
2023/08/21 05:40:53;;;;;;;10.30;4.70;;;19.40;59.30;;;;;;5033563;28;20398;-77
2023/08/21 05:43:18;;;;;;;9.32;4.43;;;19.60;57.70;;;;;;5033685;28;20391;-77
2023/08/21 05:45:44;;;;;;;15.93;5.00;;;19.80;56.10;;;;;;5036478;28;20413;-77
2023/08/21 05:48:09;;;;;;;13.82;4.40;;;20.30;51.40;;;;;;5034186;28;20387;-76
2023/08/21 05:50:36;;;;;;;8.63;4.27;;;20.60;49.60;;;;;;5031483;28;20383;-76
2023/08/21 05:53:05;;;;;;;12.15;4.70;;;20.60;49.70;;;;;;5032148;28;20418;-77
2023/08/21 05:55:30;;;;;;;13.27;4.88;;;20.70;48.80;;;;;;5031049;28;20915;-77
2023/08/21 05:57:56;;;;;;;17.33;5.30;;;21.10;46.20;;;;;;5030114;28;20472;-76
2023/08/21 06:00:22;;;;;;;11.97;4.60;;;21.20;45.30;;;;;;5030763;28;20418;-76
2023/08/21 06:02:47;;;;;;;11.00;4.60;;;21.10;45.30;;;;;;5030676;28;20403;-76
2023/08/21 06:05:13;;;;;;;13.77;4.83;;;21.20;45.40;;;;;;5030118;28;20403;-76
2023/08/21 06:07:43;;;;;;;21.25;6.07;;;21.20;45.60;;;;;;5031157;28;20747;-77
2023/08/21 06:10:12;;;;;;;9.80;4.28;;;21.30;45.60;;;;;;5030314;28;20383;-77
2023/08/21 06:12:38;;;;;;;13.68;4.20;;;21.50;44.60;;;;;;5030992;28;20418;-76
2023/08/21 06:15:04;;;;;;;13.30;4.00;;;21.70;41.80;;;;;;5030351;28;20387;-76
2023/08/21 06:17:30;;;;;;;10.90;4.45;;;21.90;40.90;;;;;;5034292;28;20398;-77
2023/08/21 06:19:59;;;;;;;12.80;6.32;;;22.00;42.00;;;;;;5033660;28;20429;-76
2023/08/21 06:22:25;;;;;;;16.13;8.45;;;22.00;41.30;;;;;;5031118;28;20802;-77
2023/08/21 06:24:50;;;;;;;34.03;21.05;;;22.00;42.00;;;;;;5032169;28;20432;-77
2023/08/21 06:27:16;;;;;;;104.27;67.63;;;21.90;41.50;;;;;;5033918;28;20383;-78
2023/08/21 06:29:41;;;;;;;56.83;38.15;;;21.90;42.50;;;;;;5032543;28;20379;-77
2023/08/21 06:32:07;;;;;;;29.33;12.40;;;22.00;42.40;;;;;;5031831;28;20402;-77
2023/08/21 06:34:32;;;;;;;10.00;4.20;;;22.10;41.00;;;;;;5032036;28;20886;-77
2023/08/21 06:36:58;;;;;;;13.20;4.50;;;22.00;41.00;;;;;;5032099;28;20443;-78
2023/08/21 06:39:25;;;;;;;9.43;3.97;;;22.40;39.60;;;;;;5033941;28;20386;-78
2023/08/21 06:41:51;;;;;;;9.70;4.13;;;22.60;38.70;;;;;;5033111;28;20394;-77
2023/08/21 06:44:17;;;;;;;11.77;4.68;;;22.60;37.90;;;;;;5015733;28;20413;-78
2023/08/21 06:46:43;;;;;;;15.55;5.13;;;22.60;38.30;;;;;;5031884;28;20406;-77
2023/08/21 06:49:09;;;;;;;11.98;4.50;;;22.60;39.10;;;;;;5036305;28;20387;-77
2023/08/21 06:51:34;;;;;;;8.55;3.85;;;22.50;39.20;;;;;;5037066;28;20399;-76
2023/08/21 06:54:00;;;;;;;10.70;4.60;;;22.60;38.60;;;;;;5037168;28;20856;-77
2023/08/21 06:56:26;;;;;;;8.75;4.20;;;22.50;38.50;;;;;;5035975;28;20405;-78
2023/08/21 06:58:52;;;;;;;10.00;4.20;;;22.50;38.70;;;;;;5034215;28;20398;-77
2023/08/21 07:01:18;;;;;;;12.60;4.00;;;22.50;38.60;;;;;;5033425;28;20470;-77
2023/08/21 07:03:43;;;;;;;7.40;4.30;;;22.60;39.40;;;;;;5033139;28;20418;-78
2023/08/21 07:06:09;;;;;;;11.33;4.30;;;22.50;38.30;;;;;;5033402;28;20935;-77
2023/08/21 07:08:38;;;;;;;8.53;4.20;;;22.70;38.60;;;;;;5032817;28;20445;-77
2023/08/21 07:11:04;;;;;;;9.75;4.00;;;22.70;38.50;;;;;;5029624;28;20387;-77
2023/08/21 07:13:30;;;;;;;10.90;3.97;;;22.90;37.30;;;;;;5031122;28;20467;-78
2023/08/21 07:15:55;;;;;;;11.17;4.03;;;23.00;37.20;;;;;;5032052;28;20379;-77
2023/08/21 07:18:21;;;;;;;11.57;3.90;;;23.00;37.00;;;;;;5032660;28;20387;-78
2023/08/21 07:20:46;;;;;;;9.93;4.10;;;23.20;36.70;;;;;;5031166;28;20779;-77
2023/08/21 07:23:12;;;;;;;9.95;3.78;;;23.50;35.90;;;;;;5030973;28;20434;-77
2023/08/21 07:25:37;;;;;;;8.47;4.00;;;23.90;34.50;;;;;;5032806;28;20388;-77
2023/08/21 07:28:03;;;;;;;7.37;3.70;;;24.00;33.60;;;;;;5031250;28;20400;-78
2023/08/21 07:30:29;;;;;;;7.38;3.50;;;23.90;32.90;;;;;;5031473;28;20466;-77
2023/08/21 07:32:55;;;;;;;8.20;3.58;;;23.80;32.60;;;;;;5035107;28;20736;-78
2023/08/21 07:35:21;;;;;;;14.57;4.43;;;23.90;33.10;;;;;;5034777;28;20745;-76
2023/08/21 07:37:46;;;;;;;9.00;3.38;;;24.00;33.50;;;;;;5034274;28;20471;-77
2023/08/21 07:40:12;;;;;;;9.15;3.90;;;23.90;32.70;;;;;;5034744;28;20387;-76
2023/08/21 07:42:38;;;;;;;10.03;3.70;;;23.90;33.00;;;;;;5036305;28;20387;-76
2023/08/21 07:45:04;;;;;;;10.57;4.00;;;24.00;32.90;;;;;;5035210;28;20850;-77
2023/08/21 07:47:30;;;;;;;9.18;4.13;;;24.00;33.30;;;;;;5036971;28;20777;-78
2023/08/21 07:49:57;;;;;;;10.20;4.00;;;24.20;32.70;;;;;;5036473;28;20482;-77
2023/08/21 07:52:23;;;;;;;10.60;4.30;;;24.20;32.90;;;;;;5036258;28;20876;-78
2023/08/21 07:54:54;;;;;;;9.23;4.05;;;24.40;31.80;;;;;;5037567;28;20408;-77
2023/08/21 07:57:20;;;;;;;6.10;3.00;;;24.50;31.70;;;;;;5036750;28;20406;-77
2023/08/21 07:59:46;;;;;;;10.48;3.42;;;24.50;30.50;;;;;;5036761;28;20449;-78
2023/08/21 08:02:12;;;;;;;11.87;3.90;;;24.30;31.20;;;;;;5036799;28;20752;-76
2023/08/21 08:04:38;;;;;;;12.38;3.60;;;24.10;32.20;;;;;;5036392;28;20461;-79
2023/08/21 08:07:04;;;;;;;10.50;2.95;;;24.00;32.50;;;;;;5034721;28;20383;-77
2023/08/21 08:09:29;;;;;;;10.17;3.80;;;23.90;33.10;;;;;;5035678;28;20584;-79
2023/08/21 08:11:55;;;;;;;9.10;3.07;;;23.90;32.50;;;;;;5036379;28;20426;-77
2023/08/21 08:14:21;;;;;;;7.85;3.90;;;23.80;32.60;;;;;;5034085;28;20478;-78
2023/08/21 08:16:47;;;;;;;8.15;3.17;;;23.80;32.00;;;;;;5035700;28;20470;-78
2023/08/21 08:19:13;;;;;;;8.82;3.10;;;23.70;32.80;;;;;;5033977;28;20463;-75
2023/08/21 08:21:40;;;;;;;7.33;3.27;;;23.70;32.90;;;;;;5033447;28;20533;-76
2023/08/21 08:24:05;;;;;;;9.50;3.70;;;23.70;33.60;;;;;;5033576;28;20453;-76
2023/08/21 08:26:31;;;;;;;7.65;3.50;;;23.70;32.50;;;;;;5034182;28;20430;-76
2023/08/21 08:28:57;;;;;;;9.93;3.78;;;23.80;32.50;;;;;;5034544;28;20391;-77
2023/08/21 08:31:23;;;;;;;9.93;4.00;;;23.90;31.90;;;;;;5033809;28;20462;-77
2023/08/21 08:33:49;;;;;;;9.43;4.95;;;23.90;32.10;;;;;;5033941;28;20571;-77
2023/08/21 08:36:14;;;;;;;7.73;4.23;;;23.90;31.80;;;;;;5034067;28;20783;-77
2023/08/21 08:38:40;;;;;;;7.18;5.10;;;23.90;32.10;;;;;;5035305;28;20383;-77
2023/08/21 08:41:11;;;;;;;10.10;5.37;;;24.00;31.90;;;;;;5036125;28;20383;-76
2023/08/21 08:43:40;;;;;;;11.65;5.00;;;24.00;32.60;;;;;;5033579;28;20418;-77
2023/08/21 08:46:07;;;;;;;9.20;4.50;;;24.20;31.60;;;;;;5034069;28;20764;-77
2023/08/21 08:48:34;;;;;;;9.93;4.97;;;24.30;31.00;;;;;;5034037;28;20438;-77
2023/08/21 08:51:03;;;;;;;9.13;4.13;;;24.20;31.10;;;;;;5033551;28;20399;-77
2023/08/21 08:53:30;;;;;;;7.70;4.00;;;24.30;32.70;;;;;;5037066;28;20497;-77
2023/08/21 08:55:57;;;;;;;8.90;4.15;;;24.40;31.50;;;;;;5037435;28;20475;-77
2023/08/21 08:58:23;;;;;;;6.72;3.80;;;24.50;31.70;;;;;;5036021;28;20383;-77
2023/08/21 09:00:49;;;;;;;6.50;4.40;;;24.60;32.20;;;;;;5033036;28;20383;-77
2023/08/21 09:03:15;;;;;;;11.40;5.07;;;24.60;31.50;;;;;;5033999;28;20379;-77
2023/08/21 09:05:41;;;;;;;10.77;5.25;;;24.70;31.50;;;;;;5034080;28;20398;-77
2023/08/21 09:08:11;;;;;;;8.77;4.07;;;24.70;31.10;;;;;;5035762;28;20383;-76
2023/08/21 09:10:40;;;;;;;11.50;4.97;;;24.80;31.00;;;;;;5035523;28;20752;-77
2023/08/21 09:13:18;;;;;;;10.57;5.27;;;24.70;31.10;;;;;;5035047;28;20476;-76
2023/08/21 09:15:46;;;;;;;13.77;5.05;;;24.80;31.60;;;;;;5017999;28;20391;-76
2023/08/21 09:18:14;;;;;;;11.65;5.20;;;24.80;31.30;;;;;;5035570;28;20499;-76
2023/08/21 09:20:41;;;;;;;10.15;4.60;;;24.80;30.90;;;;;;5036927;23;20442;-73
2023/08/21 09:23:07;;;;;;;9.43;5.20;;;24.90;31.00;;;;;;4992728;28;20490;-73
2023/08/21 09:25:38;;;;;;;10.40;5.63;;;25.10;30.10;;;;;;4992718;28;20535;-73
2023/08/21 09:28:08;;;;;;;11.18;5.72;;;24.90;30.80;;;;;;4992777;28;20406;-73
2023/08/21 09:30:53;;;;;;;11.30;5.20;;;25.00;30.70;;;;;;4992413;28;20387;-73
2023/08/21 09:33:23;;;;;;;12.10;6.00;;;25.10;30.50;;;;;;4992552;28;20383;-74
2023/08/21 09:35:52;;;;;;;12.57;6.20;;;25.10;30.30;;;;;;4992650;28;20395;-74
2023/08/21 09:38:21;;;;;;;14.30;6.75;;;25.10;29.70;;;;;;4992462;28;20383;-74
2023/08/21 09:40:54;;;;;;;10.90;6.65;;;25.10;30.10;;;;;;4992299;28;20763;-75
2023/08/21 09:43:24;;;;;;;12.65;6.60;;;25.20;30.80;;;;;;4992714;28;20394;-73
2023/08/21 09:45:53;;;;;;;11.93;6.10;;;25.30;30.30;;;;;;4992479;28;20492;-73
2023/08/21 09:48:21;;;;;;;11.70;6.87;;;25.50;30.50;;;;;;4991861;28;20525;-75
2023/08/21 09:50:46;;;;;;;14.43;7.70;;;25.80;27.90;;;;;;4992534;28;20449;-73
2023/08/21 09:53:12;;;;;;;9.55;5.40;;;25.80;28.50;;;;;;4992521;28;20485;-73
2023/08/21 09:55:38;;;;;;;13.00;6.00;;;25.60;28.00;;;;;;4991953;28;20387;-73
2023/08/21 09:58:06;;;;;;;11.15;5.25;;;25.60;28.10;;;;;;4991997;28;20469;-74
2023/08/21 10:00:40;;;;;;;12.02;5.35;;;25.50;28.50;;;;;;4991888;28;20394;-74
2023/08/21 10:03:08;;;;;;;9.13;4.67;;;25.60;27.60;;;;;;4991856;28;20441;-74
2023/08/21 10:05:37;;;;;;;8.63;4.40;;;25.70;27.60;;;;;;4992340;28;20417;-73
2023/08/21 10:08:05;;;;;;;9.35;4.20;;;25.60;27.30;;;;;;4991861;28;20394;-74
2023/08/21 10:10:35;;;;;;;9.93;4.80;;;25.50;27.50;;;;;;4993443;28;20485;-74
2023/08/21 10:13:02;;;;;;;8.70;4.10;;;25.50;27.00;;;;;;5000954;28;20390;-73
2023/08/21 10:15:29;;;;;;;8.77;4.30;;;25.60;27.10;;;;;;5000118;28;20429;-72
2023/08/21 10:17:55;;;;;;;6.90;3.95;;;25.50;27.30;;;;;;4993398;28;20900;-74
2023/08/21 10:20:23;;;;;;;10.48;4.30;;;25.60;26.50;;;;;;4990828;28;20410;-73
2023/08/21 10:22:50;;;;;;;19.67;4.10;;;25.80;26.40;;;;;;4991393;28;20879;-72
2023/08/21 10:25:17;;;;;;;12.43;4.03;;;25.80;25.80;;;;;;4991589;28;20407;-74
2023/08/21 10:27:43;;;;;;;9.67;4.80;;;25.80;26.70;;;;;;4991957;28;20476;-73
2023/08/21 10:30:19;;;;;;;9.85;4.80;;;25.90;25.00;;;;;;4992669;28;20873;-73
2023/08/21 10:32:49;;;;;;;10.47;4.93;;;25.90;25.40;;;;;;4991965;28;20469;-73
2023/08/21 10:35:18;;;;;;;15.15;4.90;;;26.10;24.70;;;;;;4991933;28;20405;-75
2023/08/21 10:38:12;;;;;;;11.70;4.90;;;26.20;24.90;;;;;;4991928;28;20391;-73
2023/08/21 10:40:39;;;;;;;11.07;4.40;;;26.30;24.40;;;;;;4991954;28;20779;-72
2023/08/21 10:43:37;;;;;;;11.25;3.90;;;26.30;25.00;;;;;;4991964;28;20442;-73
2023/08/21 10:46:02;;;;;;;9.35;4.30;;;26.30;24.80;;;;;;4992429;28;20468;-74
2023/08/21 10:48:28;;;;;;;11.10;4.00;;;26.30;24.50;;;;;;4991813;28;20844;-73
2023/08/21 10:50:54;;;;;;;9.32;4.40;;;26.20;24.40;;;;;;4991497;28;20382;-72
2023/08/21 10:53:20;;;;;;;10.32;4.60;;;26.10;25.00;;;;;;4991494;28;20477;-73
2023/08/21 10:55:53;;;;;;;12.68;4.90;;;26.10;24.70;;;;;;4991301;28;20378;-73
2023/08/21 10:58:19;;;;;;;12.88;4.43;;;26.20;24.20;;;;;;4991662;28;20486;-73
2023/08/21 11:00:45;;;;;;;8.70;4.37;;;26.30;23.90;;;;;;4991137;28;20418;-73
2023/08/21 11:03:10;;;;;;;12.52;4.07;;;26.30;23.50;;;;;;4991458;28;20461;-73
2023/08/21 11:05:36;;;;;;;8.00;4.17;;;26.30;23.00;;;;;;4992634;28;20402;-73
2023/08/21 11:08:01;;;;;;;13.38;4.57;;;26.30;23.50;;;;;;4996111;28;20422;-74
2023/08/21 11:10:31;;;;;;;13.73;4.40;;;26.30;23.70;;;;;;5004600;28;20389;-74
2023/08/21 11:13:02;;;;;;;8.02;4.40;;;26.40;24.00;;;;;;5003831;28;20454;-73
2023/08/21 11:15:29;;;;;;;11.73;4.20;;;26.50;23.00;;;;;;4998989;28;20411;-74
2023/08/21 11:18:02;;;;;;;9.63;4.10;;;26.50;22.60;;;;;;4995268;28;20440;-75
2023/08/21 11:20:32;;;;;;;9.93;3.90;;;26.50;22.50;;;;;;4994721;28;20782;-74
2023/08/21 11:23:00;;;;;;;9.15;4.00;;;26.60;22.70;;;;;;4995689;28;20395;-73
2023/08/21 11:25:26;;;;;;;11.43;3.78;;;26.60;22.40;;;;;;4995407;28;20437;-73
2023/08/21 11:27:53;;;;;;;11.95;4.07;;;26.70;21.90;;;;;;4994924;28;20438;-73
2023/08/21 11:30:18;;;;;;;8.65;4.00;;;26.80;22.00;;;;;;4994707;28;20458;-74
2023/08/21 11:32:44;;;;;;;10.32;4.20;;;26.90;21.70;;;;;;4994955;28;20795;-74
2023/08/21 11:35:09;;;;;;;9.77;3.83;;;27.10;20.80;;;;;;4994404;28;20383;-74
2023/08/21 11:37:44;;;;;;;7.93;3.90;;;27.10;22.10;;;;;;4994517;28;20445;-74
2023/08/21 11:40:11;;;;;;;7.57;3.70;;;27.30;20.60;;;;;;4994349;28;20533;-73
2023/08/21 11:42:36;;;;;;;7.53;3.67;;;27.50;20.20;;;;;;4994514;28;20469;-73
2023/08/21 11:45:02;;;;;;;6.43;3.60;;;28.10;20.20;;;;;;4994569;28;20406;-74
2023/08/21 11:47:33;;;;;;;10.60;4.20;;;28.20;18.50;;;;;;4994390;28;20422;-72
2023/08/21 11:50:04;;;;;;;9.90;3.60;;;27.90;18.50;;;;;;4994334;28;20386;-74
2023/08/21 11:52:31;;;;;;;9.75;3.30;;;28.10;19.60;;;;;;4994279;28;20382;-74
2023/08/21 11:54:57;;;;;;;8.27;3.30;;;28.20;19.20;;;;;;4994670;28;20391;-74
2023/08/21 11:57:23;;;;;;;9.88;3.70;;;28.30;18.90;;;;;;4994614;28;20388;-74
2023/08/21 11:59:53;;;;;;;7.70;3.60;;;28.10;19.10;;;;;;4994217;28;20724;-72
2023/08/21 12:02:27;;;;;;;7.75;3.58;;;27.90;18.80;;;;;;4994329;28;20394;-72
2023/08/21 12:04:53;;;;;;;7.07;3.53;;;27.80;19.60;;;;;;4994238;28;20402;-74
2023/08/21 12:07:19;;;;;;;7.80;3.53;;;27.80;19.40;;;;;;4994216;28;20452;-74
2023/08/21 12:09:49;;;;;;;7.00;3.65;;;27.80;19.80;;;;;;4994446;28;20386;-74
2023/08/21 12:12:14;;;;;;;9.20;3.92;;;27.80;18.80;;;;;;4993687;28;20386;-74
2023/08/21 12:14:40;;;;;;;13.82;4.18;;;27.70;18.90;;;;;;4993823;28;20455;-74
2023/08/21 12:17:05;;;;;;;8.30;3.50;;;27.40;19.80;;;;;;4993568;28;20386;-74
2023/08/21 12:19:31;;;;;;;13.30;3.70;;;27.30;20.10;;;;;;4994070;28;20397;-74
2023/08/21 12:21:58;;;;;;;10.35;3.70;;;27.40;19.50;;;;;;4993307;28;20403;-74
2023/08/21 12:24:24;;;;;;;7.63;3.60;;;27.50;20.00;;;;;;4994001;28;20417;-73
2023/08/21 12:26:49;;;;;;;9.57;4.00;;;27.70;20.10;;;;;;4993609;28;20386;-74
2023/08/21 12:29:15;;;;;;;7.03;3.88;;;27.80;19.50;;;;;;4994235;28;20795;-74
2023/08/21 12:31:40;;;;;;;11.43;4.20;;;27.40;19.40;;;;;;4993338;28;20386;-74
2023/08/21 12:34:06;;;;;;;12.63;4.80;;;27.30;19.60;;;;;;4993743;28;21039;-73
2023/08/21 12:36:35;;;;;;;9.87;4.27;;;27.20;19.50;;;;;;4993814;28;20386;-73
2023/08/21 12:39:01;;;;;;;10.02;4.10;;;27.30;19.90;;;;;;4994114;28;20478;-73